METAR Data
IDs: Format: Raw Decoded Include TAF

Data at: 1222 UTC 07 Jul 2020

KBMC 071150Z AUTO 34009KT 10SM CLR 21/03 A2984 RMK AO1 T02130032
KBMC 071130Z AUTO 00000KT 10SM CLR 22/03 A2984 RMK AO1 T02220025
KBMC 071110Z AUTO 26005KT 10SM CLR 24/01 A2983 RMK AO1 T02350008
KBMC 071050Z AUTO 21009KT 10SM CLR 25/M02 A2982 RMK AO1 T02461016
KBMC 071030Z AUTO 19009KT 10SM CLR 25/M02 A2982 RMK AO1 T02451016
KBMC 071010Z AUTO 18004KT 10SM CLR 25/00 A2982 RMK AO1 T02480000
KBMC 070950Z AUTO 20004KT 10SM CLR 23/04 A2981 RMK AO1 T02280039
KBMC 070930Z AUTO 32004KT 10SM CLR 22/07 A2981 RMK AO1 T02210072
KBMC 070910Z AUTO 00000KT 10SM CLR 20/09 A2981 RMK AO1 T02040088
KBMC 070850Z AUTO 35006KT 10SM CLR 21/10 A2982 RMK AO1 T02070095
KBMC 070830Z AUTO 33004KT 10SM CLR 21/09 A2982 RMK AO1 T02090091
KBMC 070810Z AUTO 00000KT 10SM CLR 20/09 A2981 RMK AO1 T01970092
KBMC 070750Z AUTO 11003KT 10SM CLR 21/09 A2982 RMK AO1 T02100093
KBMC 070730Z AUTO 00000KT 10SM CLR 21/10 A2982 RMK AO1 T02050097
KBMC 070710Z AUTO 03003KT 10SM CLR 20/09 A2982 RMK AO1 T02040093
KBMC 070650Z AUTO 00000KT 10SM CLR 21/08 A2982 RMK AO1 T02060076
KBMC 070630Z AUTO 27005KT 10SM CLR 21/08 A2981 RMK AO1 T02070076
KBMC 070615Z AUTO 30003KT 10SM CLR 21/08 A2980 RMK AO1 T02060080
KBMC 070550Z AUTO 29005KT 10SM CLR 21/08 A2981 RMK AO1 T02130082
KBMC 070530Z AUTO 34003KT 10SM CLR 22/08 A2981 RMK AO1 T02190079
KBMC 070510Z AUTO 00000KT 10SM CLR 22/09 A2981 RMK AO1 T02190087
KBMC 070450Z AUTO 34004KT 10SM CLR 23/09 A2982 RMK AO1 T02260088
KBMC 070430Z AUTO 30006KT 10SM CLR 25/07 A2983 RMK AO1 T02520068
KBMC 070410Z AUTO 28004KT 10SM CLR 26/06 A2983 RMK AO1 T02590057
KBMC 070350Z AUTO 25003KT 10SM CLR 28/04 A2983 RMK AO1 T02800035
KBMC 070330Z AUTO 00000KT 10SM CLR 29/04 A2983 RMK AO1 T02870040
KBMC 070310Z AUTO 00000KT 10SM CLR 29/06 A2983 RMK AO1 T02870062
KBMC 070250Z AUTO 00000KT 10SM CLR 31/03 A2984 RMK AO1 T03070026
KBMC 070230Z AUTO 00000KT 10SM CLR 32/M02 A2984 RMK AO1 T03181016
KBMC 070210Z AUTO 00000KT 10SM CLR 33/M04 A2985 RMK AO1 T03301042
KBMC 070150Z AUTO 00000KT 10SM CLR 33/M06 A2986 RMK AO1 T03321056
KBMC 070130Z AUTO 00000KT 10SM CLR 34/M08 A2986 RMK AO1 T03361083
KBMC 070110Z AUTO 02004KT 10SM CLR 34/M07 A2988 RMK AO1 T03371074
KBMC 070050Z AUTO 04003KT 10SM CLR 34/M06 A2988 RMK AO1 T03381057
KBMC 070030Z AUTO 00000KT 10SM CLR 34/M06 A2989 RMK AO1 T03371064
KBMC 070010Z AUTO 00000KT 10SM CLR 34/M05 A2990 RMK AO1 T03381053
KBMC 062350Z AUTO 00000KT 10SM CLR 34/M05 A2992 RMK AO1 T03381050
KBMC 062330Z AUTO 25003KT 10SM CLR 34/M05 A2993 RMK AO1 T03381050
KBMC 062310Z AUTO 25003KT 10SM CLR 34/M03 A2993 RMK AO1 T03361035
KBMC 062250Z AUTO 21005KT 10SM CLR 34/M03 A2994 RMK AO1 T03361031
KBMC 062230Z AUTO 21003KT 10SM CLR 33/M04 A2995 RMK AO1 T03341043
KBMC 062210Z AUTO 24003KT 10SM CLR 33/M03 A2996 RMK AO1 T03311032
KBMC 062150Z AUTO 22004KT 10SM CLR 33/M01 A2997 RMK AO1 T03271008
KBMC 062130Z AUTO 24003KT 10SM CLR 33/00 A2997 RMK AO1 T03261001
KBMC 062110Z AUTO 22003KT 10SM CLR 33/00 A2997 RMK AO1 T03251005
KBMC 062050Z AUTO 24003KT 10SM CLR 32/M01 A2998 RMK AO1 T03181006
KBMC 062030Z AUTO 22003KT 10SM CLR 32/00 A2999 RMK AO1 T03150001
KBMC 062010Z AUTO 22003KT 10SM CLR 31/00 A3000 RMK AO1 T03130001
KBMC 061950Z AUTO 25004KT 10SM CLR 31/00 A3000 RMK AO1 T03070003
KBMC 061930Z AUTO 00000KT 10SM CLR 30/02 A3001 RMK AO1 T03010022
KBMC 061910Z AUTO 00000KT 10SM CLR 29/03 A3002 RMK AO1 T02940034
KBMC 061850Z AUTO 00000KT 10SM CLR 29/05 A3002 RMK AO1 T02900045
KBMC 061830Z AUTO 00000KT 10SM CLR 28/05 A3003 RMK AO1 T02830053
KBMC 061810Z AUTO 00000KT 10SM CLR 28/06 A3004 RMK AO1 T02760057
KBMC 061750Z AUTO 00000KT 10SM CLR 27/06 A3004 RMK AO1 T02710059
KBMC 061730Z AUTO 00000KT 10SM CLR 27/06 A3004 RMK AO1 T02670061
KBMC 061710Z AUTO 00000KT 10SM CLR 26/06 A3004 RMK AO1 T02610061
KBMC 061650Z AUTO 00000KT 10SM CLR 26/07 A3004 RMK AO1 T02560067
KBMC 061630Z AUTO 00000KT 10SM CLR 25/07 A3004 RMK AO1 T02480069
KBMC 061610Z AUTO 00000KT 10SM CLR 25/07 A3004 RMK AO1 T02450072
KBMC 061550Z AUTO 00000KT 10SM CLR 23/07 A3004 RMK AO1 T02340071
KBMC 061530Z AUTO 00000KT 10SM CLR 22/07 A3004 RMK AO1 T02200072
KBMC 061510Z AUTO 00000KT 10SM CLR 21/07 A3004 RMK AO1 T02060074
KBMC 061450Z AUTO 00000KT 10SM CLR 19/08 A3004 RMK AO1 T01940078
KBMC 061430Z AUTO 00000KT 10SM CLR 18/08 A3003 RMK AO1 T01800078
KBMC 061410Z AUTO 00000KT 10SM CLR 17/08 A3004 RMK AO1 T01680075
KBMC 061350Z AUTO 00000KT 10SM CLR 16/07 A3002 RMK AO1 T01610073
KBMC 061330Z AUTO 00000KT 10SM CLR 16/06 A3002 RMK AO1 T01600064
KBMC 061310Z AUTO 00000KT 10SM CLR 15/07 A3002 RMK AO1 T01490067
KBMC 061250Z AUTO 00000KT 10SM CLR 14/08 A3001 RMK AO1 T01430084
KBMC 061230Z AUTO 35004KT 10SM CLR 14/07 A3001 RMK AO1 T01410069
KBMC 061210Z AUTO 30005KT 10SM CLR 14/07 A3000 RMK AO1 T01390066
KBMC 061150Z AUTO 17003KT 10SM CLR 14/07 A3000 RMK AO1 T01410074
KBMC 061130Z AUTO 00000KT 10SM CLR 15/07 A3000 RMK AO1 T01490069
KBMC 061110Z AUTO 33003KT 10SM CLR 15/07 A3000 RMK AO1 T01540065
KBMC 061055Z AUTO 31003KT 10SM CLR 16/06 A2999 RMK AO1 T01570063
KBMC 061030Z AUTO 00000KT 10SM CLR 16/07 A2999 RMK AO1 T01550068
KBMC 061010Z AUTO 00000KT 10SM CLR 16/07 A2999 RMK AO1 T01550068
KBMC 060950Z AUTO 31006KT 10SM CLR 16/06 A2999 RMK AO1 T01610064
KBMC 060930Z AUTO 30005KT 10SM CLR 16/07 A2997 RMK AO1 T01630068
KBMC 060910Z AUTO 30004KT 10SM CLR 17/07 A2997 RMK AO1 T01710066
KBMC 060850Z AUTO 30004KT 10SM CLR 18/06 A2997 RMK AO1 T01800061
KBMC 060830Z AUTO 26003KT 10SM CLR 18/07 A2997 RMK AO1 T01780067
KBMC 060810Z AUTO 00000KT 10SM CLR 18/07 A2997 RMK AO1 T01780066
KBMC 060750Z AUTO 00000KT 10SM CLR 19/06 A2997 RMK AO1 T01890055
KBMC 060730Z AUTO 27004KT 10SM CLR 20/04 A2997 RMK AO1 T02000044
KBMC 060710Z AUTO 31006KT 10SM CLR 20/03 A2997 RMK AO1 T02030034
KBMC 060650Z AUTO 31005KT 10SM CLR 20/04 A2997 RMK AO1 T02030044
KBMC 060630Z AUTO 30007KT 10SM CLR 21/05 A2997 RMK AO1 T02120045
KBMC 060610Z AUTO 34004KT 10SM CLR 22/04 A2997 RMK AO1 T02190042
KBMC 060550Z AUTO 05004KT 10SM CLR 22/03 A2997 RMK AO1 T02180033
KBMC 060530Z AUTO 36006KT 10SM CLR 21/05 A2997 RMK AO1 T02070052
KBMC 060510Z AUTO 31005KT 10SM CLR 22/06 A2997 RMK AO1 T02170056
KBMC 060450Z AUTO 29006KT 10SM CLR 23/03 A2997 RMK AO1 T02330028
KBMC 060430Z AUTO 13004KT 10SM CLR 24/03 A2997 RMK AO1 T02370028
KBMC 060410Z AUTO 12003KT 10SM CLR 24/04 A2997 RMK AO1 T02360037
KBMC 060350Z AUTO 12003KT 10SM CLR 24/05 A2997 RMK AO1 T02370054
KBMC 060330Z AUTO 13004KT 10SM CLR 25/07 A2997 RMK AO1 T02510074
KBMC 060310Z AUTO 10003KT 10SM CLR 28/09 A2997 RMK AO1 T02810087
KBMC 060250Z AUTO 00000KT 10SM CLR 30/02 A2997 RMK AO1 T02990023
KBMC 060230Z AUTO 00000KT 10SM CLR 31/M03 A2997 RMK AO1 T03071026
KBMC 060210Z AUTO 09003KT 10SM CLR 31/M05 A2997 RMK AO1 T03131054
KBMC 060150Z AUTO 09003KT 10SM CLR 32/M07 A2998 RMK AO1 T03171073
KBMC 060130Z AUTO 00000KT 10SM CLR 32/M08 A2998 RMK AO1 T03191080
KBMC 060110Z AUTO 00000KT 10SM CLR 32/M07 A2998 RMK AO1 T03201070
KBMC 060050Z AUTO 18003KT 10SM CLR 32/M06 A2998 RMK AO1 T03221059
KBMC 060030Z AUTO 16007KT 10SM CLR 32/M06 A2999 RMK AO1 T03241059